sensor_id;sensor_type;location;lat;lon;timestamp;P1;durP1;ratioP1;P2;durP2;ratioP2
1258;SDS011;619;51.472;6.628;2024-01-27T00:01:54;6.73;;;3.37;;
1258;SDS011;619;51.472;6.628;2024-01-27T00:04:20;8.07;;;2.30;;
1258;SDS011;619;51.472;6.628;2024-01-27T00:06:48;3.30;;;2.67;;
1258;SDS011;619;51.472;6.628;2024-01-27T00:09:13;4.33;;;2.23;;
1258;SDS011;619;51.472;6.628;2024-01-27T00:11:39;7.90;;;3.20;;
1258;SDS011;619;51.472;6.628;2024-01-27T00:14:04;8.40;;;3.03;;
1258;SDS011;619;51.472;6.628;2024-01-27T00:16:32;5.00;;;2.80;;
1258;SDS011;619;51.472;6.628;2024-01-27T00:18:58;5.90;;;2.60;;
1258;SDS011;619;51.472;6.628;2024-01-27T00:21:24;3.27;;;2.30;;
1258;SDS011;619;51.472;6.628;2024-01-27T00:23:49;5.10;;;2.53;;
1258;SDS011;619;51.472;6.628;2024-01-27T00:26:15;3.47;;;2.23;;
1258;SDS011;619;51.472;6.628;2024-01-27T00:28:45;3.10;;;2.20;;
1258;SDS011;619;51.472;6.628;2024-01-27T00:31:11;4.00;;;2.20;;
1258;SDS011;619;51.472;6.628;2024-01-27T00:33:36;5.27;;;4.70;;
1258;SDS011;619;51.472;6.628;2024-01-27T00:36:02;7.90;;;3.90;;
1258;SDS011;619;51.472;6.628;2024-01-27T00:38:28;6.20;;;2.80;;
1258;SDS011;619;51.472;6.628;2024-01-27T00:40:53;4.33;;;2.37;;
1258;SDS011;619;51.472;6.628;2024-01-27T00:43:19;8.73;;;2.87;;
1258;SDS011;619;51.472;6.628;2024-01-27T00:45:44;10.40;;;3.80;;
1258;SDS011;619;51.472;6.628;2024-01-27T00:48:10;12.60;;;2.97;;
1258;SDS011;619;51.472;6.628;2024-01-27T00:50:38;5.27;;;2.63;;
1258;SDS011;619;51.472;6.628;2024-01-27T00:53:04;4.87;;;3.00;;
1258;SDS011;619;51.472;6.628;2024-01-27T00:55:29;6.70;;;3.57;;
1258;SDS011;619;51.472;6.628;2024-01-27T00:57:55;8.00;;;3.23;;
1258;SDS011;619;51.472;6.628;2024-01-27T01:00:20;6.33;;;2.60;;
1258;SDS011;619;51.472;6.628;2024-01-27T01:02:48;7.67;;;2.93;;
1258;SDS011;619;51.472;6.628;2024-01-27T01:05:14;7.40;;;3.07;;
1258;SDS011;619;51.472;6.628;2024-01-27T01:07:42;6.90;;;3.57;;
1258;SDS011;619;51.472;6.628;2024-01-27T01:10:08;8.33;;;3.00;;
1258;SDS011;619;51.472;6.628;2024-01-27T01:12:34;5.13;;;2.63;;
1258;SDS011;619;51.472;6.628;2024-01-27T01:14:59;7.83;;;3.47;;
1258;SDS011;619;51.472;6.628;2024-01-27T01:17:27;4.93;;;2.77;;
1258;SDS011;619;51.472;6.628;2024-01-27T01:19:53;5.57;;;3.17;;
1258;SDS011;619;51.472;6.628;2024-01-27T01:22:18;6.33;;;2.30;;
1258;SDS011;619;51.472;6.628;2024-01-27T01:24:44;4.53;;;3.00;;
1258;SDS011;619;51.472;6.628;2024-01-27T01:27:09;3.80;;;3.40;;
1258;SDS011;619;51.472;6.628;2024-01-27T01:29:35;6.10;;;2.83;;
1258;SDS011;619;51.472;6.628;2024-01-27T01:32:01;5.33;;;3.17;;
1258;SDS011;619;51.472;6.628;2024-01-27T01:34:31;14.80;;;3.53;;
1258;SDS011;619;51.472;6.628;2024-01-27T01:36:59;10.57;;;3.30;;
1258;SDS011;619;51.472;6.628;2024-01-27T01:39:26;4.37;;;2.97;;
1258;SDS011;619;51.472;6.628;2024-01-27T01:41:52;4.10;;;3.70;;
1258;SDS011;619;51.472;6.628;2024-01-27T01:44:25;7.00;;;4.97;;
1258;SDS011;619;51.472;6.628;2024-01-27T01:46:55;7.20;;;2.90;;
1258;SDS011;619;51.472;6.628;2024-01-27T01:49:21;7.33;;;3.10;;
1258;SDS011;619;51.472;6.628;2024-01-27T01:51:47;5.33;;;3.40;;
1258;SDS011;619;51.472;6.628;2024-01-27T01:54:13;7.90;;;3.07;;
1258;SDS011;619;51.472;6.628;2024-01-27T01:56:39;5.00;;;3.20;;
1258;SDS011;619;51.472;6.628;2024-01-27T01:59:05;7.30;;;3.73;;
1258;SDS011;619;51.472;6.628;2024-01-27T02:01:31;7.30;;;3.80;;
1258;SDS011;619;51.472;6.628;2024-01-27T02:03:57;4.43;;;2.73;;
1258;SDS011;619;51.472;6.628;2024-01-27T02:06:23;5.67;;;3.10;;
1258;SDS011;619;51.472;6.628;2024-01-27T02:08:49;6.93;;;3.43;;
1258;SDS011;619;51.472;6.628;2024-01-27T02:11:15;6.17;;;2.83;;
1258;SDS011;619;51.472;6.628;2024-01-27T02:13:41;8.83;;;3.00;;
1258;SDS011;619;51.472;6.628;2024-01-27T02:16:07;5.10;;;3.30;;
1258;SDS011;619;51.472;6.628;2024-01-27T02:18:33;5.47;;;3.90;;
1258;SDS011;619;51.472;6.628;2024-01-27T02:20:59;7.27;;;3.10;;
1258;SDS011;619;51.472;6.628;2024-01-27T02:23:28;7.53;;;3.80;;
1258;SDS011;619;51.472;6.628;2024-01-27T02:25:54;6.70;;;3.50;;
1258;SDS011;619;51.472;6.628;2024-01-27T02:28:19;6.13;;;3.13;;
1258;SDS011;619;51.472;6.628;2024-01-27T02:30:48;5.43;;;3.07;;
1258;SDS011;619;51.472;6.628;2024-01-27T02:33:14;5.43;;;3.40;;
1258;SDS011;619;51.472;6.628;2024-01-27T02:35:39;8.40;;;4.13;;
1258;SDS011;619;51.472;6.628;2024-01-27T02:38:05;3.50;;;2.90;;
1258;SDS011;619;51.472;6.628;2024-01-27T02:40:31;5.00;;;3.77;;
1258;SDS011;619;51.472;6.628;2024-01-27T02:42:58;5.73;;;3.70;;
1258;SDS011;619;51.472;6.628;2024-01-27T02:45:24;9.70;;;4.70;;
1258;SDS011;619;51.472;6.628;2024-01-27T02:47:52;5.80;;;4.07;;
1258;SDS011;619;51.472;6.628;2024-01-27T02:50:20;5.40;;;3.87;;
1258;SDS011;619;51.472;6.628;2024-01-27T02:52:45;5.60;;;3.33;;
1258;SDS011;619;51.472;6.628;2024-01-27T02:55:11;5.40;;;4.03;;
1258;SDS011;619;51.472;6.628;2024-01-27T02:57:36;12.53;;;4.20;;
1258;SDS011;619;51.472;6.628;2024-01-27T03:00:03;12.23;;;5.10;;
1258;SDS011;619;51.472;6.628;2024-01-27T03:02:30;7.07;;;4.27;;
1258;SDS011;619;51.472;6.628;2024-01-27T03:04:55;7.60;;;4.60;;
1258;SDS011;619;51.472;6.628;2024-01-27T03:07:21;5.03;;;3.73;;
1258;SDS011;619;51.472;6.628;2024-01-27T03:09:46;6.70;;;3.40;;
1258;SDS011;619;51.472;6.628;2024-01-27T03:12:12;5.37;;;3.10;;
1258;SDS011;619;51.472;6.628;2024-01-27T03:14:40;4.50;;;4.10;;
1258;SDS011;619;51.472;6.628;2024-01-27T03:17:05;5.63;;;4.17;;
1258;SDS011;619;51.472;6.628;2024-01-27T03:19:36;6.37;;;4.50;;
1258;SDS011;619;51.472;6.628;2024-01-27T03:22:01;8.37;;;3.53;;
1258;SDS011;619;51.472;6.628;2024-01-27T03:24:27;9.60;;;4.30;;
1258;SDS011;619;51.472;6.628;2024-01-27T03:26:53;5.73;;;3.63;;
1258;SDS011;619;51.472;6.628;2024-01-27T03:29:18;8.07;;;2.70;;
1258;SDS011;619;51.472;6.628;2024-01-27T03:31:46;8.33;;;3.40;;
1258;SDS011;619;51.472;6.628;2024-01-27T03:34:12;6.07;;;3.47;;
1258;SDS011;619;51.472;6.628;2024-01-27T03:36:37;5.50;;;2.83;;
1258;SDS011;619;51.472;6.628;2024-01-27T03:39:03;9.10;;;4.00;;
1258;SDS011;619;51.472;6.628;2024-01-27T03:41:31;5.93;;;3.73;;
1258;SDS011;619;51.472;6.628;2024-01-27T03:43:57;12.43;;;2.90;;
1258;SDS011;619;51.472;6.628;2024-01-27T03:46:22;5.57;;;3.87;;
1258;SDS011;619;51.472;6.628;2024-01-27T03:48:48;5.00;;;3.83;;
1258;SDS011;619;51.472;6.628;2024-01-27T03:51:16;5.33;;;2.67;;
1258;SDS011;619;51.472;6.628;2024-01-27T03:53:41;7.90;;;3.93;;
1258;SDS011;619;51.472;6.628;2024-01-27T03:56:10;8.10;;;3.80;;
1258;SDS011;619;51.472;6.628;2024-01-27T03:58:37;17.40;;;4.03;;
1258;SDS011;619;51.472;6.628;2024-01-27T04:01:05;6.77;;;3.63;;
1258;SDS011;619;51.472;6.628;2024-01-27T04:03:31;5.53;;;3.73;;
1258;SDS011;619;51.472;6.628;2024-01-27T04:05:56;5.40;;;3.53;;
1258;SDS011;619;51.472;6.628;2024-01-27T04:08:22;5.50;;;3.90;;
1258;SDS011;619;51.472;6.628;2024-01-27T04:10:50;7.53;;;4.13;;
1258;SDS011;619;51.472;6.628;2024-01-27T04:13:16;4.87;;;3.13;;
1258;SDS011;619;51.472;6.628;2024-01-27T04:15:42;3.50;;;2.87;;
1258;SDS011;619;51.472;6.628;2024-01-27T04:18:11;7.43;;;4.00;;
1258;SDS011;619;51.472;6.628;2024-01-27T04:20:39;9.60;;;3.93;;
1258;SDS011;619;51.472;6.628;2024-01-27T04:23:05;7.23;;;3.10;;
1258;SDS011;619;51.472;6.628;2024-01-27T04:25:31;6.43;;;3.50;;
1258;SDS011;619;51.472;6.628;2024-01-27T04:27:58;7.73;;;4.10;;
1258;SDS011;619;51.472;6.628;2024-01-27T04:30:24;6.40;;;4.50;;
1258;SDS011;619;51.472;6.628;2024-01-27T04:32:53;3.70;;;3.30;;
1258;SDS011;619;51.472;6.628;2024-01-27T04:35:21;5.57;;;3.20;;
1258;SDS011;619;51.472;6.628;2024-01-27T04:37:46;10.50;;;3.30;;
1258;SDS011;619;51.472;6.628;2024-01-27T04:40:12;9.53;;;4.70;;
1258;SDS011;619;51.472;6.628;2024-01-27T04:42:38;4.13;;;3.63;;
1258;SDS011;619;51.472;6.628;2024-01-27T04:45:04;5.20;;;3.30;;
1258;SDS011;619;51.472;6.628;2024-01-27T04:47:31;4.50;;;3.93;;
1258;SDS011;619;51.472;6.628;2024-01-27T04:49:59;4.13;;;3.23;;
1258;SDS011;619;51.472;6.628;2024-01-27T04:52:24;6.30;;;4.50;;
1258;SDS011;619;51.472;6.628;2024-01-27T04:54:51;6.93;;;3.80;;
1258;SDS011;619;51.472;6.628;2024-01-27T04:57:19;10.20;;;4.40;;
1258;SDS011;619;51.472;6.628;2024-01-27T04:59:45;7.10;;;4.40;;
1258;SDS011;619;51.472;6.628;2024-01-27T05:02:13;6.80;;;4.80;;
1258;SDS011;619;51.472;6.628;2024-01-27T05:04:39;6.53;;;5.13;;
1258;SDS011;619;51.472;6.628;2024-01-27T05:07:09;11.93;;;5.40;;
1258;SDS011;619;51.472;6.628;2024-01-27T05:09:35;8.70;;;4.70;;
1258;SDS011;619;51.472;6.628;2024-01-27T05:12:03;6.43;;;4.13;;
1258;SDS011;619;51.472;6.628;2024-01-27T05:14:29;7.80;;;4.43;;
1258;SDS011;619;51.472;6.628;2024-01-27T05:16:54;7.43;;;4.37;;
1258;SDS011;619;51.472;6.628;2024-01-27T05:19:22;6.50;;;4.10;;
1258;SDS011;619;51.472;6.628;2024-01-27T05:21:48;8.40;;;5.80;;
1258;SDS011;619;51.472;6.628;2024-01-27T05:24:14;9.97;;;4.93;;
1258;SDS011;619;51.472;6.628;2024-01-27T05:26:39;6.60;;;4.50;;
1258;SDS011;619;51.472;6.628;2024-01-27T05:29:05;7.80;;;4.40;;
1258;SDS011;619;51.472;6.628;2024-01-27T05:31:31;10.80;;;4.70;;
1258;SDS011;619;51.472;6.628;2024-01-27T05:33:57;5.80;;;3.80;;
1258;SDS011;619;51.472;6.628;2024-01-27T05:36:22;8.07;;;5.80;;
1258;SDS011;619;51.472;6.628;2024-01-27T05:38:48;6.07;;;4.50;;
1258;SDS011;619;51.472;6.628;2024-01-27T05:41:13;13.93;;;5.37;;
1258;SDS011;619;51.472;6.628;2024-01-27T05:43:42;9.83;;;6.43;;
1258;SDS011;619;51.472;6.628;2024-01-27T05:46:08;9.17;;;5.27;;
1258;SDS011;619;51.472;6.628;2024-01-27T05:48:36;8.53;;;4.57;;
1258;SDS011;619;51.472;6.628;2024-01-27T05:51:02;7.27;;;4.20;;
1258;SDS011;619;51.472;6.628;2024-01-27T05:53:28;5.83;;;5.13;;
1258;SDS011;619;51.472;6.628;2024-01-27T05:55:53;8.30;;;5.53;;
1258;SDS011;619;51.472;6.628;2024-01-27T05:58:20;8.47;;;5.30;;
1258;SDS011;619;51.472;6.628;2024-01-27T06:00:48;11.83;;;5.27;;
1258;SDS011;619;51.472;6.628;2024-01-27T06:03:14;9.37;;;5.77;;
1258;SDS011;619;51.472;6.628;2024-01-27T06:05:42;12.17;;;5.37;;
1258;SDS011;619;51.472;6.628;2024-01-27T06:08:07;8.23;;;5.13;;
1258;SDS011;619;51.472;6.628;2024-01-27T06:10:33;11.03;;;5.90;;
1258;SDS011;619;51.472;6.628;2024-01-27T06:13:01;11.70;;;6.00;;
1258;SDS011;619;51.472;6.628;2024-01-27T06:15:27;5.53;;;4.60;;
1258;SDS011;619;51.472;6.628;2024-01-27T06:17:53;8.70;;;5.73;;
1258;SDS011;619;51.472;6.628;2024-01-27T06:20:18;6.60;;;4.53;;
1258;SDS011;619;51.472;6.628;2024-01-27T06:22:44;10.47;;;5.97;;
1258;SDS011;619;51.472;6.628;2024-01-27T06:25:10;10.97;;;7.43;;
1258;SDS011;619;51.472;6.628;2024-01-27T06:27:36;15.70;;;7.93;;
1258;SDS011;619;51.472;6.628;2024-01-27T06:30:07;7.70;;;4.50;;
1258;SDS011;619;51.472;6.628;2024-01-27T06:32:35;7.00;;;4.90;;
1258;SDS011;619;51.472;6.628;2024-01-27T06:35:01;8.20;;;4.70;;
1258;SDS011;619;51.472;6.628;2024-01-27T06:37:27;7.97;;;5.13;;
1258;SDS011;619;51.472;6.628;2024-01-27T06:39:53;8.43;;;5.60;;
1258;SDS011;619;51.472;6.628;2024-01-27T06:42:19;15.83;;;5.63;;
1258;SDS011;619;51.472;6.628;2024-01-27T06:44:46;8.63;;;4.80;;
1258;SDS011;619;51.472;6.628;2024-01-27T06:47:12;9.33;;;5.37;;
1258;SDS011;619;51.472;6.628;2024-01-27T06:49:38;6.17;;;4.40;;
1258;SDS011;619;51.472;6.628;2024-01-27T06:52:04;6.47;;;4.90;;
1258;SDS011;619;51.472;6.628;2024-01-27T06:54:32;10.37;;;5.40;;
1258;SDS011;619;51.472;6.628;2024-01-27T06:57:03;9.87;;;4.90;;
1258;SDS011;619;51.472;6.628;2024-01-27T06:59:29;9.17;;;5.43;;
1258;SDS011;619;51.472;6.628;2024-01-27T07:01:55;5.47;;;4.40;;
1258;SDS011;619;51.472;6.628;2024-01-27T07:04:23;5.70;;;5.00;;
1258;SDS011;619;51.472;6.628;2024-01-27T07:06:49;7.03;;;4.73;;
1258;SDS011;619;51.472;6.628;2024-01-27T07:09:14;8.27;;;5.50;;
1258;SDS011;619;51.472;6.628;2024-01-27T07:11:40;12.23;;;4.67;;
1258;SDS011;619;51.472;6.628;2024-01-27T07:14:05;6.53;;;4.50;;
1258;SDS011;619;51.472;6.628;2024-01-27T07:16:34;6.87;;;5.00;;
1258;SDS011;619;51.472;6.628;2024-01-27T07:19:00;7.87;;;4.50;;
1258;SDS011;619;51.472;6.628;2024-01-27T07:21:25;11.63;;;5.40;;
1258;SDS011;619;51.472;6.628;2024-01-27T07:23:52;14.20;;;5.10;;
1258;SDS011;619;51.472;6.628;2024-01-27T07:26:18;8.37;;;4.30;;
1258;SDS011;619;51.472;6.628;2024-01-27T07:28:44;6.07;;;4.50;;
1258;SDS011;619;51.472;6.628;2024-01-27T07:31:14;9.20;;;4.60;;
1258;SDS011;619;51.472;6.628;2024-01-27T07:33:40;9.23;;;5.50;;
1258;SDS011;619;51.472;6.628;2024-01-27T07:36:06;10.10;;;5.07;;
1258;SDS011;619;51.472;6.628;2024-01-27T07:38:32;5.27;;;4.37;;
1258;SDS011;619;51.472;6.628;2024-01-27T07:40:57;7.20;;;4.10;;
1258;SDS011;619;51.472;6.628;2024-01-27T07:43:24;11.50;;;5.90;;
1258;SDS011;619;51.472;6.628;2024-01-27T07:45:51;6.53;;;5.07;;
1258;SDS011;619;51.472;6.628;2024-01-27T07:48:17;14.83;;;5.90;;
1258;SDS011;619;51.472;6.628;2024-01-27T07:50:43;9.67;;;4.50;;
1258;SDS011;619;51.472;6.628;2024-01-27T07:53:13;10.73;;;4.67;;
1258;SDS011;619;51.472;6.628;2024-01-27T07:55:42;10.23;;;5.73;;
1258;SDS011;619;51.472;6.628;2024-01-27T07:58:07;6.83;;;4.83;;
1258;SDS011;619;51.472;6.628;2024-01-27T08:00:35;17.70;;;5.93;;
1258;SDS011;619;51.472;6.628;2024-01-27T08:03:01;8.27;;;4.90;;
1258;SDS011;619;51.472;6.628;2024-01-27T08:05:27;8.43;;;4.83;;
1258;SDS011;619;51.472;6.628;2024-01-27T08:07:52;6.10;;;4.90;;
1258;SDS011;619;51.472;6.628;2024-01-27T08:10:18;9.90;;;4.50;;
1258;SDS011;619;51.472;6.628;2024-01-27T08:12:44;9.90;;;4.47;;
1258;SDS011;619;51.472;6.628;2024-01-27T08:15:09;7.80;;;4.47;;
1258;SDS011;619;51.472;6.628;2024-01-27T08:17:37;8.43;;;5.00;;
1258;SDS011;619;51.472;6.628;2024-01-27T08:20:02;8.10;;;4.07;;
1258;SDS011;619;51.472;6.628;2024-01-27T08:22:29;5.93;;;4.43;;
1258;SDS011;619;51.472;6.628;2024-01-27T08:24:54;10.13;;;4.73;;
1258;SDS011;619;51.472;6.628;2024-01-27T08:27:23;7.43;;;5.10;;
1258;SDS011;619;51.472;6.628;2024-01-27T08:29:48;5.73;;;4.60;;
1258;SDS011;619;51.472;6.628;2024-01-27T08:32:14;8.13;;;5.40;;
1258;SDS011;619;51.472;6.628;2024-01-27T08:34:40;9.30;;;4.90;;
1258;SDS011;619;51.472;6.628;2024-01-27T08:37:13;9.20;;;5.90;;
1258;SDS011;619;51.472;6.628;2024-01-27T08:39:45;8.90;;;4.53;;
1258;SDS011;619;51.472;6.628;2024-01-27T08:42:11;10.40;;;6.10;;
1258;SDS011;619;51.472;6.628;2024-01-27T08:44:40;7.20;;;4.10;;
1258;SDS011;619;51.472;6.628;2024-01-27T08:47:05;13.23;;;5.30;;
1258;SDS011;619;51.472;6.628;2024-01-27T08:49:31;11.13;;;4.30;;
1258;SDS011;619;51.472;6.628;2024-01-27T08:51:59;7.10;;;4.93;;
1258;SDS011;619;51.472;6.628;2024-01-27T08:54:25;8.20;;;5.43;;
1258;SDS011;619;51.472;6.628;2024-01-27T08:56:53;6.47;;;3.93;;
1258;SDS011;619;51.472;6.628;2024-01-27T08:59:21;10.30;;;4.80;;
1258;SDS011;619;51.472;6.628;2024-01-27T09:01:49;7.23;;;5.20;;
1258;SDS011;619;51.472;6.628;2024-01-27T09:04:14;7.10;;;4.20;;
1258;SDS011;619;51.472;6.628;2024-01-27T09:06:40;8.60;;;4.50;;
1258;SDS011;619;51.472;6.628;2024-01-27T09:09:06;14.30;;;5.50;;
1258;SDS011;619;51.472;6.628;2024-01-27T09:11:31;8.10;;;6.43;;
1258;SDS011;619;51.472;6.628;2024-01-27T09:13:59;8.00;;;3.97;;
1258;SDS011;619;51.472;6.628;2024-01-27T09:16:25;6.80;;;4.83;;
1258;SDS011;619;51.472;6.628;2024-01-27T09:18:51;12.07;;;6.40;;
1258;SDS011;619;51.472;6.628;2024-01-27T09:21:19;7.73;;;4.57;;
1258;SDS011;619;51.472;6.628;2024-01-27T09:23:47;12.83;;;6.13;;
1258;SDS011;619;51.472;6.628;2024-01-27T09:26:13;7.47;;;4.20;;
1258;SDS011;619;51.472;6.628;2024-01-27T09:28:40;10.23;;;5.87;;
1258;SDS011;619;51.472;6.628;2024-01-27T09:31:11;11.70;;;5.40;;
1258;SDS011;619;51.472;6.628;2024-01-27T09:33:39;8.60;;;4.37;;
1258;SDS011;619;51.472;6.628;2024-01-27T09:36:05;11.20;;;5.53;;
1258;SDS011;619;51.472;6.628;2024-01-27T09:38:31;10.50;;;5.10;;
1258;SDS011;619;51.472;6.628;2024-01-27T09:40:57;8.30;;;5.13;;
1258;SDS011;619;51.472;6.628;2024-01-27T09:43:23;9.97;;;5.13;;
1258;SDS011;619;51.472;6.628;2024-01-27T09:45:54;14.57;;;5.70;;
1258;SDS011;619;51.472;6.628;2024-01-27T09:48:22;10.70;;;4.60;;
1258;SDS011;619;51.472;6.628;2024-01-27T09:50:48;11.13;;;4.63;;
1258;SDS011;619;51.472;6.628;2024-01-27T09:53:16;6.33;;;4.50;;
1258;SDS011;619;51.472;6.628;2024-01-27T09:55:43;13.40;;;6.00;;
1258;SDS011;619;51.472;6.628;2024-01-27T09:58:09;12.80;;;5.27;;
1258;SDS011;619;51.472;6.628;2024-01-27T10:00:36;16.20;;;5.33;;
1258;SDS011;619;51.472;6.628;2024-01-27T10:03:03;9.27;;;4.60;;
1258;SDS011;619;51.472;6.628;2024-01-27T10:05:31;10.43;;;5.00;;
1258;SDS011;619;51.472;6.628;2024-01-27T10:07:57;12.30;;;5.10;;
1258;SDS011;619;51.472;6.628;2024-01-27T10:10:23;10.27;;;4.80;;
1258;SDS011;619;51.472;6.628;2024-01-27T10:12:48;10.00;;;4.63;;
1258;SDS011;619;51.472;6.628;2024-01-27T10:15:21;11.67;;;5.33;;
1258;SDS011;619;51.472;6.628;2024-01-27T10:17:51;10.13;;;4.67;;
1258;SDS011;619;51.472;6.628;2024-01-27T10:20:17;9.57;;;4.30;;
1258;SDS011;619;51.472;6.628;2024-01-27T10:22:46;9.10;;;4.47;;
1258;SDS011;619;51.472;6.628;2024-01-27T10:25:12;10.63;;;5.33;;
1258;SDS011;619;51.472;6.628;2024-01-27T10:27:37;9.10;;;4.97;;
1258;SDS011;619;51.472;6.628;2024-01-27T10:30:04;7.30;;;4.13;;
1258;SDS011;619;51.472;6.628;2024-01-27T10:32:32;8.83;;;5.30;;
1258;SDS011;619;51.472;6.628;2024-01-27T10:35:01;7.00;;;4.73;;
1258;SDS011;619;51.472;6.628;2024-01-27T10:37:30;8.70;;;4.63;;
1258;SDS011;619;51.472;6.628;2024-01-27T10:40:05;16.87;;;5.07;;
1258;SDS011;619;51.472;6.628;2024-01-27T10:42:35;8.20;;;4.17;;
1258;SDS011;619;51.472;6.628;2024-01-27T10:45:04;13.30;;;4.20;;
1258;SDS011;619;51.472;6.628;2024-01-27T10:47:38;7.60;;;3.50;;
1258;SDS011;619;51.472;6.628;2024-01-27T10:50:08;6.30;;;3.80;;
1258;SDS011;619;51.472;6.628;2024-01-27T10:52:39;8.20;;;5.10;;
1258;SDS011;619;51.472;6.628;2024-01-27T10:55:10;8.27;;;5.03;;
1258;SDS011;619;51.472;6.628;2024-01-27T10:57:38;6.30;;;4.03;;
1258;SDS011;619;51.472;6.628;2024-01-27T11:00:05;8.07;;;3.70;;
1258;SDS011;619;51.472;6.628;2024-01-27T11:02:34;8.40;;;4.17;;
1258;SDS011;619;51.472;6.628;2024-01-27T11:05:04;10.17;;;5.53;;
1258;SDS011;619;51.472;6.628;2024-01-27T11:07:32;11.90;;;4.73;;
1258;SDS011;619;51.472;6.628;2024-01-27T11:10:02;13.60;;;6.00;;
1258;SDS011;619;51.472;6.628;2024-01-27T11:12:28;8.80;;;3.80;;
1258;SDS011;619;51.472;6.628;2024-01-27T11:14:57;5.40;;;3.77;;
1258;SDS011;619;51.472;6.628;2024-01-27T11:17:23;10.40;;;4.53;;
1258;SDS011;619;51.472;6.628;2024-01-27T11:19:52;16.17;;;5.60;;
1258;SDS011;619;51.472;6.628;2024-01-27T11:24:53;6.37;;;4.10;;
1258;SDS011;619;51.472;6.628;2024-01-27T11:27:39;11.50;;;4.60;;
1258;SDS011;619;51.472;6.628;2024-01-27T11:30:24;9.47;;;4.20;;
1258;SDS011;619;51.472;6.628;2024-01-27T11:32:50;7.93;;;3.70;;
1258;SDS011;619;51.472;6.628;2024-01-27T11:35:17;7.50;;;4.07;;
1258;SDS011;619;51.472;6.628;2024-01-27T11:37:45;7.80;;;4.03;;
1258;SDS011;619;51.472;6.628;2024-01-27T11:40:15;7.87;;;3.53;;
1258;SDS011;619;51.472;6.628;2024-01-27T11:42:41;7.63;;;4.50;;
1258;SDS011;619;51.472;6.628;2024-01-27T11:45:10;8.33;;;3.63;;
1258;SDS011;619;51.472;6.628;2024-01-27T11:47:35;8.80;;;3.70;;
1258;SDS011;619;51.472;6.628;2024-01-27T11:50:01;5.13;;;3.20;;
1258;SDS011;619;51.472;6.628;2024-01-27T11:52:28;5.33;;;3.50;;
1258;SDS011;619;51.472;6.628;2024-01-27T11:54:57;10.20;;;3.77;;
1258;SDS011;619;51.472;6.628;2024-01-27T11:57:26;9.47;;;3.43;;
1258;SDS011;619;51.472;6.628;2024-01-27T11:59:55;8.60;;;3.97;;
1258;SDS011;619;51.472;6.628;2024-01-27T12:02:21;8.77;;;3.70;;
1258;SDS011;619;51.472;6.628;2024-01-27T12:04:51;5.50;;;3.23;;
1258;SDS011;619;51.472;6.628;2024-01-27T12:07:17;6.27;;;4.50;;
1258;SDS011;619;51.472;6.628;2024-01-27T12:09:45;9.73;;;4.03;;
1258;SDS011;619;51.472;6.628;2024-01-27T12:12:12;9.13;;;3.10;;
1258;SDS011;619;51.472;6.628;2024-01-27T12:14:39;9.37;;;4.43;;
1258;SDS011;619;51.472;6.628;2024-01-27T12:17:10;6.53;;;2.70;;
1258;SDS011;619;51.472;6.628;2024-01-27T12:19:39;5.07;;;3.30;;
1258;SDS011;619;51.472;6.628;2024-01-27T12:22:20;6.03;;;2.67;;
1258;SDS011;619;51.472;6.628;2024-01-27T12:24:56;6.27;;;3.00;;
1258;SDS011;619;51.472;6.628;2024-01-27T12:27:38;6.30;;;3.20;;
1258;SDS011;619;51.472;6.628;2024-01-27T12:30:05;10.13;;;3.50;;
1258;SDS011;619;51.472;6.628;2024-01-27T12:32:33;5.20;;;2.70;;
1258;SDS011;619;51.472;6.628;2024-01-27T12:35:03;5.53;;;3.20;;
1258;SDS011;619;51.472;6.628;2024-01-27T12:37:33;4.73;;;2.90;;
1258;SDS011;619;51.472;6.628;2024-01-27T12:40:02;7.43;;;3.03;;
1258;SDS011;619;51.472;6.628;2024-01-27T12:42:41;5.00;;;3.33;;
1258;SDS011;619;51.472;6.628;2024-01-27T12:45:07;10.60;;;3.00;;
1258;SDS011;619;51.472;6.628;2024-01-27T12:47:33;8.13;;;3.37;;
1258;SDS011;619;51.472;6.628;2024-01-27T12:49:58;6.20;;;3.73;;
1258;SDS011;619;51.472;6.628;2024-01-27T12:52:24;9.93;;;4.90;;
1258;SDS011;619;51.472;6.628;2024-01-27T12:54:49;5.40;;;2.87;;
1258;SDS011;619;51.472;6.628;2024-01-27T12:57:18;7.03;;;3.30;;
1258;SDS011;619;51.472;6.628;2024-01-27T12:59:44;7.83;;;2.60;;
1258;SDS011;619;51.472;6.628;2024-01-27T13:02:12;9.73;;;2.83;;
1258;SDS011;619;51.472;6.628;2024-01-27T13:04:38;6.13;;;2.60;;
1258;SDS011;619;51.472;6.628;2024-01-27T13:07:04;6.70;;;3.00;;
1258;SDS011;619;51.472;6.628;2024-01-27T13:09:30;7.17;;;2.90;;
1258;SDS011;619;51.472;6.628;2024-01-27T13:11:58;4.80;;;3.00;;
1258;SDS011;619;51.472;6.628;2024-01-27T13:14:26;6.87;;;2.43;;
1258;SDS011;619;51.472;6.628;2024-01-27T13:16:54;4.93;;;1.80;;
1258;SDS011;619;51.472;6.628;2024-01-27T13:19:19;4.77;;;1.93;;
1258;SDS011;619;51.472;6.628;2024-01-27T13:21:45;5.20;;;3.40;;
1258;SDS011;619;51.472;6.628;2024-01-27T13:24:13;7.30;;;2.40;;
1258;SDS011;619;51.472;6.628;2024-01-27T13:26:41;3.30;;;1.97;;
1258;SDS011;619;51.472;6.628;2024-01-27T13:29:07;3.20;;;2.00;;
1258;SDS011;619;51.472;6.628;2024-01-27T13:31:34;4.63;;;2.37;;
1258;SDS011;619;51.472;6.628;2024-01-27T13:34:02;5.37;;;2.43;;
1258;SDS011;619;51.472;6.628;2024-01-27T13:36:29;3.50;;;2.13;;
1258;SDS011;619;51.472;6.628;2024-01-27T13:38:55;8.70;;;3.10;;
1258;SDS011;619;51.472;6.628;2024-01-27T13:41:20;3.63;;;1.90;;
1258;SDS011;619;51.472;6.628;2024-01-27T13:43:46;6.83;;;3.40;;
1258;SDS011;619;51.472;6.628;2024-01-27T13:46:17;6.70;;;2.77;;
1258;SDS011;619;51.472;6.628;2024-01-27T13:48:47;5.73;;;2.57;;
1258;SDS011;619;51.472;6.628;2024-01-27T13:51:13;6.03;;;2.17;;
1258;SDS011;619;51.472;6.628;2024-01-27T13:53:42;4.73;;;2.40;;
1258;SDS011;619;51.472;6.628;2024-01-27T13:56:10;6.80;;;2.10;;
1258;SDS011;619;51.472;6.628;2024-01-27T13:58:36;5.17;;;2.00;;
1258;SDS011;619;51.472;6.628;2024-01-27T14:01:05;6.30;;;2.20;;
1258;SDS011;619;51.472;6.628;2024-01-27T14:03:33;5.87;;;2.57;;
1258;SDS011;619;51.472;6.628;2024-01-27T14:05:59;7.53;;;2.30;;
1258;SDS011;619;51.472;6.628;2024-01-27T14:08:24;7.73;;;2.90;;
1258;SDS011;619;51.472;6.628;2024-01-27T14:10:50;5.30;;;2.50;;
1258;SDS011;619;51.472;6.628;2024-01-27T14:13:21;4.33;;;2.40;;
1258;SDS011;619;51.472;6.628;2024-01-27T14:15:47;6.10;;;2.80;;
1258;SDS011;619;51.472;6.628;2024-01-27T14:18:13;5.53;;;2.60;;
1258;SDS011;619;51.472;6.628;2024-01-27T14:20:46;11.60;;;3.33;;
1258;SDS011;619;51.472;6.628;2024-01-27T14:23:15;5.70;;;3.10;;
1258;SDS011;619;51.472;6.628;2024-01-27T14:25:43;4.27;;;2.90;;
1258;SDS011;619;51.472;6.628;2024-01-27T14:28:09;4.70;;;3.17;;
1258;SDS011;619;51.472;6.628;2024-01-27T14:30:38;8.50;;;3.67;;
1258;SDS011;619;51.472;6.628;2024-01-27T14:33:05;10.77;;;3.60;;
1258;SDS011;619;51.472;6.628;2024-01-27T14:35:32;7.80;;;2.70;;
1258;SDS011;619;51.472;6.628;2024-01-27T14:38:00;9.90;;;3.37;;
1258;SDS011;619;51.472;6.628;2024-01-27T14:40:26;17.70;;;3.93;;
1258;SDS011;619;51.472;6.628;2024-01-27T14:42:52;5.40;;;2.20;;
1258;SDS011;619;51.472;6.628;2024-01-27T14:45:18;3.80;;;2.33;;
1258;SDS011;619;51.472;6.628;2024-01-27T14:47:45;5.80;;;2.40;;
1258;SDS011;619;51.472;6.628;2024-01-27T14:50:10;4.50;;;2.40;;
1258;SDS011;619;51.472;6.628;2024-01-27T14:52:36;4.23;;;2.30;;
1258;SDS011;619;51.472;6.628;2024-01-27T14:55:04;5.50;;;2.10;;
1258;SDS011;619;51.472;6.628;2024-01-27T14:57:30;4.67;;;2.30;;
1258;SDS011;619;51.472;6.628;2024-01-27T14:59:57;6.07;;;2.00;;
1258;SDS011;619;51.472;6.628;2024-01-27T15:02:23;2.70;;;1.63;;
1258;SDS011;619;51.472;6.628;2024-01-27T15:04:51;4.90;;;2.17;;
1258;SDS011;619;51.472;6.628;2024-01-27T15:07:17;6.07;;;2.07;;
1258;SDS011;619;51.472;6.628;2024-01-27T15:09:42;8.23;;;2.57;;
1258;SDS011;619;51.472;6.628;2024-01-27T15:12:13;4.20;;;2.33;;
1258;SDS011;619;51.472;6.628;2024-01-27T15:14:39;5.20;;;1.87;;
1258;SDS011;619;51.472;6.628;2024-01-27T15:17:05;5.80;;;2.20;;
1258;SDS011;619;51.472;6.628;2024-01-27T15:19:36;5.97;;;2.80;;
1258;SDS011;619;51.472;6.628;2024-01-27T15:22:06;5.30;;;1.67;;
1258;SDS011;619;51.472;6.628;2024-01-27T15:24:34;4.80;;;1.80;;
1258;SDS011;619;51.472;6.628;2024-01-27T15:27:04;4.30;;;2.47;;
1258;SDS011;619;51.472;6.628;2024-01-27T15:29:30;8.47;;;2.57;;